Time;durP1;ratioP1;P1;durP2;ratioP2;P2;SDS_P1;SDS_P2;PMS_P1;PMS_P2;Temp;Humidity;BMP_temperature;BMP_pressure;BME280_temperature;BME280_humidity;BME280_pressure;Samples;Min_cycle;Max_cycle;Signal;HPM_P1;HPM_P2
2021/05/03 00:02:10;;;;;;;11.20;0.45;;;7.50;99.90;;;;;;4429065;32;20069;-70
2021/05/03 00:04:35;;;;;;;0.40;0.40;;;7.50;99.90;;;;;;4430007;32;20065;-70
2021/05/03 00:07:01;;;;;;;1.48;0.88;;;7.40;99.90;;;;;;4428397;32;20408;-70
2021/05/03 00:09:26;;;;;;;0.35;0.35;;;7.40;99.90;;;;;;4428376;32;20074;-70
2021/05/03 00:11:52;;;;;;;0.52;0.40;;;7.40;99.90;;;;;;4438137;32;20111;-70
2021/05/03 00:14:17;;;;;;;0.30;0.30;;;7.40;99.90;;;;;;4440455;32;20092;-70
2021/05/03 00:16:43;;;;;;;0.28;0.28;;;7.40;99.90;;;;;;4441161;32;20397;-70
2021/05/03 00:19:09;;;;;;;0.30;0.30;;;7.40;99.90;;;;;;4444428;32;20454;-70
2021/05/03 00:21:34;;;;;;;0.40;0.40;;;7.40;99.90;;;;;;4443726;32;20097;-70
2021/05/03 00:24:00;;;;;;;0.40;0.40;;;7.40;99.90;;;;;;4444470;32;20061;-70
2021/05/03 00:26:25;;;;;;;0.35;0.35;;;7.40;99.90;;;;;;4444128;32;20078;-70
2021/05/03 00:28:51;;;;;;;0.82;0.82;;;7.30;99.90;;;;;;4443575;32;20403;-70
2021/05/03 00:31:16;;;;;;;0.30;0.30;;;7.40;99.90;;;;;;4441355;32;20127;-70
2021/05/03 00:33:42;;;;;;;0.47;0.45;;;7.30;99.90;;;;;;4428506;32;20518;-70
2021/05/03 00:36:07;;;;;;;0.50;0.43;;;7.40;99.90;;;;;;4428827;32;20078;-70
2021/05/03 00:38:33;;;;;;;0.40;0.40;;;7.40;99.90;;;;;;4427781;32;20116;-70
2021/05/03 00:41:00;;;;;;;0.45;0.45;;;7.40;99.90;;;;;;4428682;32;20077;-70
2021/05/03 00:43:25;;;;;;;1.67;1.00;;;7.40;99.90;;;;;;4430961;32;20058;-70
2021/05/03 00:45:51;;;;;;;1.65;0.82;;;7.30;99.90;;;;;;4431246;32;20082;-70
2021/05/03 00:48:17;;;;;;;5.65;0.95;;;7.40;99.90;;;;;;4432437;32;20530;-70
2021/05/03 00:50:43;;;;;;;0.30;0.30;;;7.30;99.90;;;;;;4430387;32;20065;-70
2021/05/03 00:53:10;;;;;;;0.30;0.30;;;7.30;99.90;;;;;;4430670;32;20062;-70
2021/05/03 00:55:36;;;;;;;1.70;0.85;;;7.30;99.90;;;;;;4431253;32;20054;-70
2021/05/03 00:58:03;;;;;;;0.30;0.30;;;7.20;99.90;;;;;;4436453;32;20069;-70
2021/05/03 01:00:29;;;;;;;0.47;0.47;;;7.20;99.90;;;;;;4431384;32;20074;-70
2021/05/03 01:02:55;;;;;;;0.62;0.62;;;7.10;99.90;;;;;;4431560;32;20404;-70
2021/05/03 01:05:21;;;;;;;0.30;0.30;;;7.10;99.90;;;;;;4431922;32;20491;-69
2021/05/03 01:07:47;;;;;;;0.30;0.30;;;7.10;99.90;;;;;;4430590;32;20065;-70
2021/05/03 01:10:14;;;;;;;2.10;1.40;;;7.10;99.90;;;;;;4431152;32;20061;-71
2021/05/03 01:12:40;;;;;;;0.40;0.40;;;7.00;99.90;;;;;;4444767;32;20175;-69
2021/05/03 01:15:09;;;;;;;1.87;1.30;;;7.00;99.90;;;;;;4438816;32;20074;-70
2021/05/03 01:17:35;;;;;;;0.30;0.30;;;7.00;99.90;;;;;;4445755;32;20065;-70
2021/05/03 01:20:11;;;;;;;2.53;0.40;;;6.90;99.90;;;;;;4445555;32;20099;-70
2021/05/03 01:22:37;;;;;;;0.22;0.22;;;6.80;99.90;;;;;;4446979;32;20565;-70
2021/05/03 01:25:04;;;;;;;0.17;0.17;;;6.70;99.90;;;;;;4445966;32;20062;-70
2021/05/03 01:27:31;;;;;;;0.30;0.30;;;6.70;99.90;;;;;;4440032;32;20069;-70
2021/05/03 01:29:56;;;;;;;0.30;0.30;;;6.70;99.90;;;;;;4438503;32;20115;-70
2021/05/03 01:32:21;;;;;;;0.30;0.30;;;6.50;99.90;;;;;;4436438;32;20704;-70
2021/05/03 01:34:47;;;;;;;0.32;0.32;;;6.50;99.90;;;;;;4430456;32;20090;-71
2021/05/03 01:37:14;;;;;;;1.65;0.90;;;6.40;99.90;;;;;;4430611;32;20112;-70
2021/05/03 01:39:40;;;;;;;0.47;0.47;;;6.30;99.90;;;;;;4431182;32;20462;-70
2021/05/03 01:42:05;;;;;;;0.50;0.50;;;6.30;99.90;;;;;;4430650;32;20073;-70
2021/05/03 01:44:31;;;;;;;0.35;0.35;;;6.40;99.90;;;;;;4430042;32;20517;-70
2021/05/03 01:46:57;;;;;;;1.17;0.65;;;6.30;99.90;;;;;;4435583;32;20070;-70
2021/05/03 01:49:22;;;;;;;0.30;0.30;;;6.30;99.90;;;;;;4445090;32;20069;-70
2021/05/03 01:51:49;;;;;;;3.25;1.58;;;6.30;99.90;;;;;;4445669;32;20427;-70
2021/05/03 01:54:14;;;;;;;0.30;0.30;;;6.30;99.90;;;;;;4445482;32;20112;-70
2021/05/03 01:56:40;;;;;;;0.52;0.43;;;6.40;99.90;;;;;;4446005;32;20062;-70
2021/05/03 01:59:06;;;;;;;0.50;0.45;;;6.20;99.90;;;;;;4435309;32;20064;-70
2021/05/03 02:01:33;;;;;;;0.40;0.40;;;6.20;99.90;;;;;;4430646;32;20534;-70
2021/05/03 02:04:00;;;;;;;0.32;0.32;;;6.30;99.90;;;;;;4429785;32;20420;-70
2021/05/03 02:06:25;;;;;;;0.40;0.40;;;6.40;99.90;;;;;;4430109;32;20527;-70
2021/05/03 02:08:50;;;;;;;0.30;0.30;;;6.30;99.90;;;;;;4430484;32;20062;-70
2021/05/03 02:11:16;;;;;;;1.17;0.60;;;6.30;99.90;;;;;;4436256;32;20553;-70
2021/05/03 02:13:42;;;;;;;0.30;0.30;;;6.20;99.90;;;;;;4445338;32;20061;-70
2021/05/03 02:16:07;;;;;;;0.37;0.37;;;6.20;99.90;;;;;;4438431;32;20077;-70
2021/05/03 02:18:33;;;;;;;0.73;0.73;;;6.10;99.90;;;;;;4446831;32;20396;-69
2021/05/03 02:20:58;;;;;;;0.30;0.30;;;6.10;99.90;;;;;;4444763;32;20081;-70
2021/05/03 02:23:24;;;;;;;0.30;0.30;;;6.10;99.90;;;;;;4445336;32;20465;-69
2021/05/03 02:25:49;;;;;;;1.98;1.02;;;6.10;99.90;;;;;;4446172;32;20061;-70
2021/05/03 02:28:15;;;;;;;0.30;0.30;;;6.00;99.90;;;;;;4445929;32;20080;-70
2021/05/03 02:30:41;;;;;;;0.40;0.40;;;5.90;99.90;;;;;;4432845;32;20069;-71
2021/05/03 02:33:07;;;;;;;0.75;0.70;;;5.80;99.90;;;;;;4429863;32;20070;-71
2021/05/03 02:35:34;;;;;;;0.50;0.50;;;5.80;99.90;;;;;;4438957;32;20522;-70
2021/05/03 02:38:01;;;;;;;0.40;0.40;;;5.80;99.90;;;;;;4444679;32;20065;-70
2021/05/03 02:40:27;;;;;;;0.65;0.57;;;5.70;99.90;;;;;;4444753;32;20424;-71
2021/05/03 02:42:55;;;;;;;1.87;0.68;;;5.70;99.90;;;;;;4446668;32;20606;-71
2021/05/03 02:45:22;;;;;;;0.47;0.47;;;5.70;99.90;;;;;;4444513;32;20123;-71
2021/05/03 02:47:47;;;;;;;0.43;0.43;;;5.60;99.90;;;;;;4434945;32;20073;-70
2021/05/03 02:50:14;;;;;;;0.50;0.50;;;5.60;99.90;;;;;;4430154;32;20073;-70
2021/05/03 02:52:41;;;;;;;0.35;0.35;;;5.60;99.90;;;;;;4429757;32;20498;-71
2021/05/03 02:55:10;;;;;;;0.30;0.30;;;5.60;99.90;;;;;;4430975;32;20108;-70
2021/05/03 02:57:36;;;;;;;0.37;0.35;;;5.60;99.90;;;;;;4432104;32;20061;-71
2021/05/03 03:00:04;;;;;;;0.52;0.50;;;5.70;99.90;;;;;;4429768;32;20124;-71
2021/05/03 03:02:30;;;;;;;0.30;0.30;;;5.70;99.90;;;;;;4428783;32;20421;-71
2021/05/03 03:04:55;;;;;;;0.40;0.40;;;5.70;99.90;;;;;;4434291;32;20062;-70
2021/05/03 03:07:20;;;;;;;6.87;0.57;;;5.70;99.90;;;;;;4445226;32;20563;-70
2021/05/03 03:09:46;;;;;;;0.40;0.40;;;5.70;99.90;;;;;;4444079;32;20073;-70
2021/05/03 03:12:12;;;;;;;0.30;0.30;;;5.80;99.90;;;;;;4430835;32;20074;-70
2021/05/03 03:14:37;;;;;;;0.40;0.40;;;5.70;99.90;;;;;;4434822;32;20298;-70
2021/05/03 03:17:04;;;;;;;0.37;0.37;;;5.80;99.90;;;;;;4430171;32;20130;-70
2021/05/03 03:19:30;;;;;;;0.30;0.30;;;5.70;99.90;;;;;;4428630;32;20057;-70
2021/05/03 03:21:55;;;;;;;4.22;2.05;;;5.70;99.90;;;;;;4429105;32;20518;-70
2021/05/03 03:24:21;;;;;;;0.50;0.50;;;5.70;99.90;;;;;;4429496;32;20061;-70
2021/05/03 03:26:46;;;;;;;0.30;0.30;;;5.70;99.90;;;;;;4429488;32;20078;-70
2021/05/03 03:29:12;;;;;;;0.25;0.25;;;5.60;99.90;;;;;;4432138;32;20119;-70
2021/05/03 03:31:37;;;;;;;0.62;0.62;;;5.60;99.90;;;;;;4439904;32;20065;-70
2021/05/03 03:34:03;;;;;;;0.30;0.30;;;5.60;99.90;;;;;;4429266;32;20069;-70
2021/05/03 03:36:28;;;;;;;0.30;0.30;;;5.60;99.90;;;;;;4428945;32;20078;-70
2021/05/03 03:38:54;;;;;;;0.30;0.30;;;5.70;99.90;;;;;;4428980;32;20058;-70
2021/05/03 03:41:19;;;;;;;0.35;0.35;;;5.70;99.90;;;;;;4429281;32;20093;-70
2021/05/03 03:43:45;;;;;;;0.40;0.40;;;5.70;99.90;;;;;;4428763;32;20057;-70
2021/05/03 03:46:11;;;;;;;0.30;0.30;;;5.60;99.90;;;;;;4429136;32;20412;-70
2021/05/03 03:48:36;;;;;;;0.70;0.70;;;5.70;99.90;;;;;;4444987;32;20081;-70
2021/05/03 03:51:02;;;;;;;0.30;0.30;;;5.60;99.90;;;;;;4444064;32;20065;-70
2021/05/03 03:53:27;;;;;;;0.40;0.40;;;5.60;99.90;;;;;;4444742;32;20069;-70
2021/05/03 03:55:53;;;;;;;0.30;0.30;;;5.60;99.90;;;;;;4444322;32;20538;-70
2021/05/03 03:58:18;;;;;;;0.40;0.40;;;5.60;99.90;;;;;;4438246;32;20267;-70
2021/05/03 04:00:44;;;;;;;0.65;0.60;;;5.60;99.90;;;;;;4428597;32;20476;-70
2021/05/03 04:03:10;;;;;;;0.30;0.30;;;5.60;99.90;;;;;;4428951;32;20393;-70
2021/05/03 04:08:12;;;;;;;0.30;0.30;;;5.50;99.90;;;;;;4428242;32;20145;-71
2021/05/03 04:21:46;;;;;;;0.93;0.77;;;5.40;99.90;;;;;;4429709;32;20135;-71
2021/05/03 04:21:54;;;;;;;0.30;0.30;;;5.50;99.90;;;;;;4426856;32;20182;-70
2021/05/03 04:26:47;;;;;;;0.68;0.68;;;5.50;99.90;;;;;;4439902;32;20076;-70
2021/05/03 04:29:13;;;;;;;0.30;0.30;;;5.50;99.90;;;;;;4434163;32;20470;-70
2021/05/03 04:31:38;;;;;;;0.30;0.30;;;5.50;99.90;;;;;;4441743;32;20077;-70
2021/05/03 04:34:04;;;;;;;0.30;0.30;;;5.50;99.90;;;;;;4431468;32;20127;-71
2021/05/03 04:36:29;;;;;;;0.40;0.40;;;5.40;99.90;;;;;;4431112;32;20065;-70
2021/05/03 04:38:55;;;;;;;0.50;0.50;;;5.50;99.90;;;;;;4431144;32;20078;-70
2021/05/03 04:41:20;;;;;;;0.28;0.28;;;5.40;99.90;;;;;;4430622;32;20511;-70
2021/05/03 04:43:46;;;;;;;0.30;0.30;;;5.40;99.90;;;;;;4430261;32;20073;-70
2021/05/03 04:46:12;;;;;;;0.47;0.47;;;5.50;99.90;;;;;;4430760;32;20073;-70
2021/05/03 04:48:38;;;;;;;0.40;0.40;;;5.60;99.90;;;;;;4446620;32;20060;-70
2021/05/03 04:51:04;;;;;;;0.30;0.30;;;5.60;99.90;;;;;;4445057;32;20061;-70
2021/05/03 04:53:29;;;;;;;0.40;0.40;;;5.60;99.90;;;;;;4445300;32;20116;-70
2021/05/03 04:55:55;;;;;;;6.82;0.68;;;5.60;99.90;;;;;;4444950;32;20081;-70
2021/05/03 04:58:20;;;;;;;1.75;0.70;;;5.60;99.90;;;;;;4440123;32;20073;-70
2021/05/03 05:00:46;;;;;;;0.60;0.60;;;5.60;99.90;;;;;;4433391;32;20509;-70
2021/05/03 05:03:11;;;;;;;4.57;2.17;;;5.70;99.90;;;;;;4428799;32;20121;-70
2021/05/03 05:05:37;;;;;;;0.30;0.30;;;5.70;99.90;;;;;;4438571;32;20069;-70
2021/05/03 05:08:03;;;;;;;10.13;2.20;;;5.80;99.90;;;;;;4441013;32;20076;-70
2021/05/03 05:10:28;;;;;;;0.37;0.37;;;5.70;99.90;;;;;;4441610;32;20080;-69
2021/05/03 05:12:54;;;;;;;1.87;0.93;;;5.70;99.90;;;;;;4438277;32;20494;-69
2021/05/03 05:15:19;;;;;;;0.25;0.25;;;5.70;99.90;;;;;;4436483;32;20116;-69
2021/05/03 05:17:47;;;;;;;0.75;0.75;;;5.60;99.90;;;;;;4428415;32;20068;-70
2021/05/03 05:20:13;;;;;;;0.30;0.30;;;5.70;99.90;;;;;;4436889;32;20069;-69
2021/05/03 05:22:38;;;;;;;0.40;0.40;;;5.70;99.90;;;;;;4429442;32;20419;-69
2021/05/03 05:25:06;;;;;;;0.77;0.52;;;5.70;99.90;;;;;;4437713;32;20064;-70
2021/05/03 05:27:32;;;;;;;0.47;0.47;;;5.70;99.90;;;;;;4437194;32;20072;-70
2021/05/03 05:29:57;;;;;;;0.30;0.30;;;5.70;99.90;;;;;;4434881;32;20153;-70
2021/05/03 05:32:23;;;;;;;0.30;0.30;;;5.70;99.90;;;;;;4422772;32;20396;-70
2021/05/03 05:34:48;;;;;;;1.40;0.45;;;5.70;99.90;;;;;;4434280;32;20089;-70
2021/05/03 05:37:14;;;;;;;2.58;1.27;;;5.80;99.90;;;;;;4428077;32;20086;-70
2021/05/03 05:39:39;;;;;;;0.30;0.30;;;5.80;99.90;;;;;;4434840;32;20084;-70
2021/05/03 05:42:06;;;;;;;0.40;0.40;;;5.80;99.90;;;;;;4428811;32;20069;-71
2021/05/03 05:44:32;;;;;;;7.05;2.20;;;5.80;99.90;;;;;;4428193;32;20726;-71
2021/05/03 05:46:57;;;;;;;0.30;0.30;;;5.70;99.90;;;;;;4439255;32;20502;-71
2021/05/03 05:49:23;;;;;;;0.45;0.45;;;5.70;99.90;;;;;;4425355;32;20053;-71
2021/05/03 05:51:48;;;;;;;0.30;0.30;;;5.70;99.90;;;;;;4436786;32;20144;-71
2021/05/03 05:54:14;;;;;;;0.50;0.50;;;5.70;99.90;;;;;;4429051;32;20077;-71
2021/05/03 05:56:40;;;;;;;0.30;0.30;;;5.70;99.90;;;;;;4434741;32;20134;-70
2021/05/03 05:59:07;;;;;;;0.60;0.60;;;5.70;99.90;;;;;;4434099;32;20069;-70
2021/05/03 06:01:32;;;;;;;0.40;0.40;;;5.80;99.90;;;;;;4436597;32;20433;-71
2021/05/03 06:03:58;;;;;;;0.30;0.30;;;5.90;99.90;;;;;;4437168;32;20518;-70
2021/05/03 06:06:23;;;;;;;0.32;0.32;;;6.00;99.90;;;;;;4436425;32;20325;-70
2021/05/03 06:08:49;;;;;;;0.37;0.37;;;6.10;99.90;;;;;;4437178;32;20558;-70
2021/05/03 06:11:15;;;;;;;0.30;0.30;;;6.20;99.90;;;;;;4428673;32;20125;-70
2021/05/03 06:13:40;;;;;;;0.43;0.43;;;6.20;99.90;;;;;;4434126;32;20073;-70
2021/05/03 06:16:09;;;;;;;0.20;0.20;;;6.30;99.90;;;;;;4432719;32;20522;-70
2021/05/03 06:18:35;;;;;;;0.30;0.30;;;6.30;99.90;;;;;;4439129;32;20372;-70
2021/05/03 06:21:00;;;;;;;0.30;0.30;;;6.20;99.90;;;;;;4435940;32;20138;-70
2021/05/03 06:23:26;;;;;;;1.27;0.88;;;6.20;99.90;;;;;;4436029;32;20089;-70
2021/05/03 06:25:52;;;;;;;0.30;0.30;;;6.40;99.90;;;;;;4437673;32;20065;-70
2021/05/03 06:28:17;;;;;;;0.50;0.50;;;6.50;99.90;;;;;;4435066;32;20407;-70
2021/05/03 06:30:43;;;;;;;0.30;0.30;;;6.60;99.90;;;;;;4442111;32;20062;-70
2021/05/03 06:33:08;;;;;;;0.35;0.35;;;6.70;99.90;;;;;;4437661;32;20077;-70
2021/05/03 06:35:34;;;;;;;1.23;0.82;;;6.80;99.90;;;;;;4432830;32;20096;-70
2021/05/03 06:38:00;;;;;;;0.30;0.30;;;6.90;99.90;;;;;;4434436;32;20097;-70
2021/05/03 06:40:26;;;;;;;0.30;0.30;;;7.00;99.90;;;;;;4434877;32;20061;-70
2021/05/03 06:42:52;;;;;;;0.40;0.40;;;6.90;99.90;;;;;;4433459;32;20150;-70
2021/05/03 06:45:20;;;;;;;0.73;0.73;;;6.90;99.90;;;;;;4425471;32;20076;-70
2021/05/03 06:47:46;;;;;;;0.88;0.88;;;7.00;99.90;;;;;;4430259;32;20399;-70
2021/05/03 06:50:13;;;;;;;0.35;0.35;;;7.10;99.90;;;;;;4429720;32;20094;-70
2021/05/03 06:52:44;;;;;;;0.75;0.62;;;7.20;99.90;;;;;;4429867;32;20424;-70
2021/05/03 06:55:12;;;;;;;0.30;0.30;;;7.20;99.90;;;;;;4434757;32;20089;-70
2021/05/03 06:57:37;;;;;;;0.82;0.82;;;7.30;99.90;;;;;;4432301;32;20081;-70
2021/05/03 07:00:06;;;;;;;0.60;0.60;;;7.40;99.90;;;;;;4437711;32;20065;-70
2021/05/03 07:02:32;;;;;;;0.37;0.37;;;7.60;99.90;;;;;;4435481;32;20522;-70
2021/05/03 07:04:57;;;;;;;0.20;0.20;;;7.80;99.90;;;;;;4436435;32;20101;-70
2021/05/03 07:07:23;;;;;;;0.40;0.40;;;7.90;99.90;;;;;;4430536;32;20197;-70
2021/05/03 07:09:49;;;;;;;1.65;0.40;;;7.90;99.90;;;;;;4429554;32;20140;-70
2021/05/03 07:12:18;;;;;;;0.32;0.32;;;7.70;99.90;;;;;;4429937;32;20065;-71
2021/05/03 07:14:44;;;;;;;2.08;0.70;;;7.60;99.90;;;;;;4437975;32;20065;-70
2021/05/03 07:17:09;;;;;;;5.93;2.15;;;7.50;99.90;;;;;;4415755;32;20105;-70
2021/05/03 07:19:38;;;;;;;5.62;1.55;;;7.40;99.90;;;;;;4433123;32;20454;-72
2021/05/03 07:22:05;;;;;;;0.40;0.40;;;7.50;99.90;;;;;;4436604;32;20092;-71
2021/05/03 07:24:32;;;;;;;0.30;0.30;;;7.80;99.90;;;;;;4429972;32;20177;-71
2021/05/03 07:26:58;;;;;;;0.30;0.30;;;7.70;99.90;;;;;;4432972;32;20093;-71
2021/05/03 07:29:23;;;;;;;0.40;0.40;;;7.50;99.90;;;;;;4425747;32;20469;-71
2021/05/03 07:31:49;;;;;;;0.40;0.40;;;7.60;99.90;;;;;;4436747;32;20085;-71
2021/05/03 07:34:15;;;;;;;0.45;0.45;;;7.80;99.90;;;;;;4431233;32;20111;-70
2021/05/03 07:36:41;;;;;;;1.35;0.60;;;7.80;99.90;;;;;;4431826;32;20076;-71
2021/05/03 07:39:07;;;;;;;0.30;0.30;;;7.90;99.90;;;;;;4430526;32;20776;-71
2021/05/03 07:41:33;;;;;;;11.60;1.20;;;8.10;99.90;;;;;;4427141;32;20169;-70
2021/05/03 07:44:00;;;;;;;0.60;0.60;;;8.20;99.90;;;;;;4434501;32;20081;-69
2021/05/03 07:46:27;;;;;;;2.40;1.10;;;8.30;99.90;;;;;;4431923;32;20073;-71
2021/05/03 07:48:54;;;;;;;0.30;0.30;;;8.40;99.90;;;;;;4429058;32;20061;-71
2021/05/03 07:51:19;;;;;;;1.48;0.73;;;8.20;99.90;;;;;;4429975;32;20082;-72
2021/05/03 07:53:45;;;;;;;0.35;0.35;;;8.10;99.90;;;;;;4433587;32;20088;-70
2021/05/03 07:56:14;;;;;;;0.30;0.30;;;8.10;99.90;;;;;;4430345;32;20087;-71
2021/05/03 07:58:42;;;;;;;1.27;1.15;;;8.10;99.90;;;;;;4435663;32;20061;-70
2021/05/03 08:01:09;;;;;;;0.40;0.40;;;8.20;99.90;;;;;;4427932;32;20105;-70
2021/05/03 08:03:38;;;;;;;0.37;0.37;;;8.30;99.90;;;;;;4429392;32;20088;-70
2021/05/03 08:06:05;;;;;;;0.45;0.45;;;8.50;99.90;;;;;;4436544;32;20065;-70
2021/05/03 08:08:30;;;;;;;0.40;0.40;;;8.50;99.90;;;;;;4433790;32;20119;-70
2021/05/03 08:10:56;;;;;;;0.30;0.30;;;8.50;99.90;;;;;;4431489;32;20085;-70
2021/05/03 08:13:21;;;;;;;0.30;0.30;;;8.60;99.90;;;;;;4428998;32;20080;-70
2021/05/03 08:15:49;;;;;;;0.30;0.30;;;8.70;99.90;;;;;;4430525;32;20097;-70
2021/05/03 08:18:14;;;;;;;0.30;0.30;;;8.80;99.90;;;;;;4433218;32;20412;-70
2021/05/03 08:20:40;;;;;;;0.30;0.30;;;8.80;99.90;;;;;;4429128;32;20069;-70
2021/05/03 08:23:09;;;;;;;0.50;0.50;;;8.90;99.90;;;;;;4431739;32;20060;-70
2021/05/03 08:25:35;;;;;;;0.30;0.30;;;8.90;99.90;;;;;;4431571;32;20057;-71
2021/05/03 08:28:00;;;;;;;0.47;0.47;;;8.90;99.90;;;;;;4436008;32;20078;-70
2021/05/03 08:30:26;;;;;;;0.50;0.50;;;8.90;99.90;;;;;;4435797;32;20475;-70
2021/05/03 08:32:52;;;;;;;2.37;1.23;;;8.80;99.90;;;;;;4437016;32;20143;-70
2021/05/03 08:35:17;;;;;;;0.30;0.30;;;8.80;99.90;;;;;;4427054;32;20102;-70
2021/05/03 08:37:43;;;;;;;0.35;0.35;;;9.10;99.90;;;;;;4435560;32;20074;-70
2021/05/03 08:40:09;;;;;;;0.30;0.30;;;9.30;99.90;;;;;;4432864;32;20278;-70
2021/05/03 08:42:35;;;;;;;0.40;0.40;;;9.60;99.90;;;;;;4433959;32;20061;-70
2021/05/03 08:45:02;;;;;;;0.30;0.30;;;9.80;99.90;;;;;;4432758;32;20077;-70
2021/05/03 08:47:33;;;;;;;1.20;0.68;;;10.00;99.90;;;;;;4432225;32;20101;-71
2021/05/03 08:50:08;;;;;;;1.08;0.82;;;10.30;99.90;;;;;;4438099;32;20082;-70
2021/05/03 08:52:45;;;;;;;0.30;0.30;;;10.10;99.90;;;;;;4435795;32;20065;-70
2021/05/03 08:55:11;;;;;;;0.30;0.30;;;10.10;99.90;;;;;;4430285;32;20084;-70
2021/05/03 08:57:37;;;;;;;0.50;0.50;;;10.20;99.90;;;;;;4434364;32;20077;-71
2021/05/03 09:00:09;;;;;;;0.30;0.30;;;10.20;99.90;;;;;;4433711;32;20061;-71
2021/05/03 09:02:35;;;;;;;0.40;0.40;;;9.90;99.90;;;;;;4438497;32;20064;-70
2021/05/03 09:05:00;;;;;;;0.30;0.30;;;9.70;99.90;;;;;;4438527;32;20143;-71
2021/05/03 09:07:26;;;;;;;0.55;0.55;;;9.80;99.90;;;;;;4435532;32;20118;-71
2021/05/03 09:09:52;;;;;;;0.40;0.40;;;10.10;99.90;;;;;;4441704;32;20424;-71
2021/05/03 09:12:20;;;;;;;0.30;0.30;;;10.60;99.90;;;;;;4424308;32;20844;-71
2021/05/03 09:15:02;;;;;;;0.40;0.40;;;10.60;99.90;;;;;;4427260;32;20389;-70
2021/05/03 09:17:30;;;;;;;0.90;0.90;;;10.70;99.90;;;;;;4426742;32;20057;-70
2021/05/03 09:19:58;;;;;;;0.73;0.40;;;10.80;99.90;;;;;;4424402;32;20069;-70
2021/05/03 09:22:25;;;;;;;0.30;0.30;;;10.90;99.90;;;;;;4427471;32;20090;-70
2021/05/03 09:24:51;;;;;;;0.30;0.30;;;10.60;99.90;;;;;;4425858;32;20266;-71
2021/05/03 09:27:20;;;;;;;0.20;0.20;;;10.40;99.90;;;;;;4423044;32;20081;-71
2021/05/03 09:29:48;;;;;;;0.30;0.30;;;10.40;99.90;;;;;;4425366;32;21574;-70
2021/05/03 09:32:19;;;;;;;0.32;0.32;;;10.20;99.90;;;;;;4423842;32;20072;-72
2021/05/03 09:34:46;;;;;;;;;;;10.30;99.90;;;;;;4424780;32;20085;-72
2021/05/03 09:37:25;;;;;;;0.45;0.45;;;10.30;99.90;;;;;;4426596;32;19965;-72
2021/05/03 09:39:53;;;;;;;0.40;0.40;;;10.70;99.90;;;;;;4422553;32;94365;-72
2021/05/03 09:42:19;;;;;;;0.40;0.40;;;10.70;99.90;;;;;;4423534;32;20220;-70
2021/05/03 09:45:07;;;;;;;0.30;0.30;;;10.70;99.90;;;;;;4422991;32;20427;-71
2021/05/03 09:47:34;;;;;;;0.62;0.52;;;10.50;99.90;;;;;;4414257;32;20097;-72
2021/05/03 09:50:07;;;;;;;0.35;0.35;;;10.40;99.90;;;;;;4425979;32;20116;-72
2021/05/03 09:52:32;;;;;;;0.22;0.22;;;10.40;99.90;;;;;;4422861;32;20158;-74
2021/05/03 09:54:58;;;;;;;0.30;0.30;;;10.30;99.90;;;;;;4428046;32;20849;-72
2021/05/03 09:57:23;;;;;;;0.30;0.30;;;10.40;99.90;;;;;;4424278;32;20400;-72
2021/05/03 09:59:52;;;;;;;0.40;0.40;;;10.50;99.90;;;;;;4424704;32;20074;-71
2021/05/03 10:02:24;;;;;;;0.30;0.30;;;10.50;99.90;;;;;;4424690;32;20081;-71
2021/05/03 10:04:52;;;;;;;0.37;0.37;;;11.00;99.90;;;;;;4420922;32;20073;-73
2021/05/03 10:07:21;;;;;;;0.30;0.30;;;10.80;99.90;;;;;;4421749;32;20105;-72
2021/05/03 10:09:51;;;;;;;0.20;0.20;;;10.70;99.90;;;;;;4422696;32;20073;-72
2021/05/03 10:12:18;;;;;;;0.30;0.30;;;10.60;99.90;;;;;;4424653;32;20586;-73
2021/05/03 10:14:46;;;;;;;0.30;0.30;;;10.60;99.90;;;;;;4421281;32;20549;-73
2021/05/03 10:17:14;;;;;;;25.10;2.50;;;10.50;99.90;;;;;;4422856;32;20139;-72
2021/05/03 10:19:40;;;;;;;0.25;0.25;;;10.90;99.90;;;;;;4424428;32;20065;-73
2021/05/03 10:22:06;;;;;;;12.15;1.30;;;11.30;99.90;;;;;;4430559;32;20085;-73
2021/05/03 10:24:33;;;;;;;0.40;0.40;;;12.00;99.90;;;;;;4436277;32;20085;-74
2021/05/03 10:26:59;;;;;;;0.40;0.40;;;12.30;99.90;;;;;;4433885;32;20092;-73
2021/05/03 10:29:28;;;;;;;0.30;0.30;;;11.60;99.90;;;;;;4439098;32;20076;-73
2021/05/03 10:31:57;;;;;;;0.30;0.30;;;11.50;99.90;;;;;;4435480;32;20064;-73
2021/05/03 10:34:42;;;;;;;0.30;0.30;;;11.70;99.30;;;;;;4433282;32;20415;-72
2021/05/03 10:37:33;;;;;;;0.32;0.32;;;11.60;98.70;;;;;;4436027;32;20065;-75
2021/05/03 10:40:09;;;;;;;0.30;0.30;;;11.50;98.90;;;;;;4426978;32;20120;-72
2021/05/03 10:42:34;;;;;;;0.37;0.37;;;11.30;99.60;;;;;;4431395;32;20072;-74
2021/05/03 10:45:12;;;;;;;0.30;0.30;;;11.20;99.60;;;;;;4429383;32;20424;-72
2021/05/03 10:50:44;;;;;;;0.32;0.32;;;11.20;99.40;;;;;;4430746;32;20096;-72
2021/05/03 10:53:31;;;;;;;0.32;0.32;;;11.40;99.90;;;;;;4421165;32;20074;-72
2021/05/03 10:56:00;;;;;;;0.30;0.30;;;11.70;99.90;;;;;;4425181;32;20535;-70
2021/05/03 10:58:26;;;;;;;0.30;0.30;;;12.10;99.00;;;;;;4431678;32;20124;-71
2021/05/03 11:01:02;;;;;;;0.30;0.30;;;12.30;99.30;;;;;;4429708;32;20510;-71
2021/05/03 11:03:57;;;;;;;0.52;0.52;;;12.80;98.10;;;;;;4429947;32;20269;-72
2021/05/03 11:06:43;;;;;;;0.30;0.30;;;12.70;96.10;;;;;;4416818;32;20132;-71
2021/05/03 11:09:31;;;;;;;0.30;0.30;;;12.30;96.00;;;;;;4418652;32;20062;-71
2021/05/03 11:11:57;;;;;;;0.30;0.30;;;11.70;96.80;;;;;;4418711;32;20104;-71
2021/05/03 11:14:23;;;;;;;0.90;0.50;;;11.40;98.00;;;;;;4425149;32;20097;-70
2021/05/03 11:16:55;;;;;;;0.30;0.30;;;11.60;98.10;;;;;;4432993;32;20082;-71
2021/05/03 11:19:31;;;;;;;;;;;12.40;96.80;;;;;;4436828;32;20131;-71
2021/05/03 11:21:57;;;;;;;0.30;0.30;;;12.90;96.00;;;;;;4427302;32;19952;-71
2021/05/03 11:24:30;;;;;;;2.00;1.10;;;13.00;95.60;;;;;;4431854;32;20146;-71
2021/05/03 11:27:04;;;;;;;0.68;0.35;;;12.70;95.50;;;;;;4432359;32;20069;-71
2021/05/03 11:30:06;;;;;;;0.20;0.20;;;12.40;95.70;;;;;;4428472;32;20073;-70
2021/05/03 11:32:15;;;;;;;0.40;0.40;;;12.10;95.50;;;;;;4417339;32;20439;-70
2021/05/03 11:35:00;;;;;;;0.40;0.40;;;12.00;96.50;;;;;;4428362;32;20065;-70
2021/05/03 11:37:32;;;;;;;0.30;0.30;;;11.90;96.70;;;;;;4427465;32;20465;-69
2021/05/03 11:42:40;;;;;;;0.45;0.45;;;12.00;96.60;;;;;;4435955;27;20112;-64
2021/05/03 11:45:06;;;;;;;0.40;0.40;;;12.10;97.10;;;;;;4408781;32;20757;-64
2021/05/03 11:47:34;;;;;;;0.37;0.37;;;12.00;96.90;;;;;;4394220;32;20098;-64
2021/05/03 11:50:00;;;;;;;0.30;0.30;;;11.90;97.20;;;;;;4411190;32;20094;-63
2021/05/03 11:52:30;;;;;;;0.40;0.40;;;11.60;97.20;;;;;;4400141;32;20058;-63
2021/05/03 11:55:14;;;;;;;0.47;0.47;;;11.60;97.40;;;;;;4412870;32;20077;-63
2021/05/03 11:57:44;;;;;;;0.40;0.40;;;11.60;97.40;;;;;;4391385;32;20057;-64
2021/05/03 12:00:12;;;;;;;0.30;0.30;;;12.20;97.30;;;;;;4405446;32;20085;-64
2021/05/03 12:02:37;;;;;;;0.30;0.30;;;12.30;95.80;;;;;;4413155;32;20073;-64
2021/05/03 12:05:12;;;;;;;0.60;0.60;;;12.20;96.70;;;;;;4417413;32;20085;-62
2021/05/03 12:07:37;;;;;;;0.43;0.43;;;12.20;97.10;;;;;;4400900;32;20432;-63
2021/05/03 12:10:10;;;;;;;0.30;0.30;;;12.40;95.90;;;;;;4415950;32;20081;-62
2021/05/03 12:12:54;;;;;;;0.30;0.30;;;12.60;95.70;;;;;;4399530;32;20065;-63
2021/05/03 12:15:22;;;;;;;0.60;0.60;;;12.30;94.20;;;;;;4417512;32;20608;-63
2021/05/03 12:17:49;;;;;;;0.40;0.40;;;12.20;94.10;;;;;;4413620;32;20432;-63
2021/05/03 12:20:18;;;;;;;0.30;0.30;;;12.10;94.00;;;;;;4416087;32;20502;-63
2021/05/03 12:22:52;;;;;;;0.40;0.40;;;12.20;94.30;;;;;;4405105;32;20085;-63
2021/05/03 12:25:18;;;;;;;0.40;0.40;;;12.30;94.70;;;;;;4406544;32;20062;-64
2021/05/03 12:27:43;;;;;;;0.40;0.40;;;12.00;94.70;;;;;;4417905;32;20165;-63
2021/05/03 12:30:10;;;;;;;0.30;0.30;;;11.90;95.20;;;;;;4418183;32;20124;-63
2021/05/03 12:32:37;;;;;;;0.40;0.40;;;12.10;95.40;;;;;;4406566;32;20324;-64
2021/05/03 12:35:06;;;;;;;0.30;0.30;;;12.00;95.20;;;;;;4392486;32;20098;-64
2021/05/03 12:37:32;;;;;;;1.48;0.60;;;11.90;95.20;;;;;;4417044;32;20062;-62
2021/05/03 12:40:08;;;;;;;0.30;0.30;;;11.70;95.80;;;;;;4416925;32;20094;-63
2021/05/03 12:42:38;;;;;;;0.50;0.50;;;11.60;95.80;;;;;;4420639;32;20121;-64
2021/05/03 12:48:04;;;;;;;0.47;0.47;;;11.40;96.30;;;;;;4405026;32;20059;-65
2021/05/03 12:51:52;;;;;;;4.62;1.02;;;11.40;96.90;;;;;;4421009;32;20119;-64
2021/05/03 12:54:35;;;;;;;1.52;1.15;;;11.30;97.10;;;;;;4411189;32;20090;-64
2021/05/03 12:56:58;;;;;;;0.55;0.55;;;11.30;97.90;;;;;;4393529;32;20406;-66
2021/05/03 12:59:40;;;;;;;0.30;0.30;;;11.10;98.50;;;;;;4389701;32;20236;-64
2021/05/03 13:02:11;;;;;;;8.60;2.10;;;11.00;99.30;;;;;;4413176;32;20525;-63
2021/05/03 13:04:44;;;;;;;0.35;0.35;;;11.00;99.50;;;;;;4412467;32;20054;-64
2021/05/03 13:07:24;;;;;;;0.30;0.30;;;11.20;99.50;;;;;;4408686;32;20065;-66
2021/05/03 13:23:44;;;;;;;1.80;1.17;;;11.10;99.90;;;;;;4414393;32;20106;-63
2021/05/03 13:28:03;;;;;;;0.40;0.40;;;11.10;99.90;;;;;;4406077;32;20128;-64
2021/05/03 13:29:09;;;;;;;0.30;0.30;;;11.00;99.90;;;;;;4427816;32;20073;-64
2021/05/03 13:31:37;;;;;;;0.40;0.40;;;11.10;99.90;;;;;;4422463;32;20127;-66
2021/05/03 13:34:06;;;;;;;0.40;0.40;;;11.00;99.90;;;;;;4420815;32;20471;-64